createdAt,value
2023-10-09T00:00:45.671Z,4.51
2023-10-09T00:02:47.173Z,4.39
2023-10-09T00:04:48.721Z,4.46
2023-10-09T00:06:50.574Z,4.20
2023-10-09T00:08:52.194Z,4.52
2023-10-09T00:10:53.813Z,4.53
2023-10-09T00:12:55.423Z,4.36
2023-10-09T00:14:57.700Z,4.36
2023-10-09T00:16:59.252Z,4.23
2023-10-09T00:19:05.049Z,4.21
2023-10-09T00:21:06.693Z,4.19
2023-10-09T00:23:08.148Z,4.25
2023-10-09T00:25:09.667Z,4.14
2023-10-09T00:27:11.392Z,4.04
2023-10-09T00:29:17.271Z,4.05
2023-10-09T00:31:21.786Z,4.18
2023-10-09T00:33:23.568Z,4.16
2023-10-09T00:35:25.104Z,4.00
2023-10-09T00:37:26.598Z,4.03
2023-10-09T00:39:28.141Z,4.06
2023-10-09T00:41:29.686Z,4.00
2023-10-09T00:43:31.402Z,3.83
2023-10-09T00:45:34.251Z,4.00
2023-10-09T00:47:36.487Z,3.94
2023-10-09T00:49:39.483Z,3.96
2023-10-09T00:51:49.323Z,3.97
2023-10-09T00:53:56.683Z,4.07
2023-10-09T00:56:01.655Z,3.92
2023-10-09T00:58:04.298Z,4.02
2023-10-09T01:00:06.242Z,3.97
2023-10-09T01:02:07.757Z,4.12
2023-10-09T01:04:09.337Z,4.01
2023-10-09T01:06:12.464Z,4.10
2023-10-09T01:08:13.979Z,4.07
2023-10-09T01:10:15.801Z,4.04
2023-10-09T01:12:17.314Z,4.13
2023-10-09T01:14:18.791Z,4.22
2023-10-09T01:16:22.201Z,4.12
2023-10-09T01:18:24.112Z,4.10
2023-10-09T01:20:26.181Z,4.26
2023-10-09T01:22:27.598Z,4.06
2023-10-09T01:24:29.162Z,4.15
2023-10-09T01:26:41.438Z,4.31
2023-10-09T01:28:42.968Z,4.20
2023-10-09T01:30:44.445Z,4.13
2023-10-09T01:32:45.953Z,4.24
2023-10-09T01:34:47.533Z,4.22
2023-10-09T01:36:49.052Z,4.30
2023-10-09T01:38:50.485Z,4.25
2023-10-09T01:40:51.914Z,4.19
2023-10-09T01:42:53.403Z,4.36
2023-10-09T01:44:54.887Z,4.27
2023-10-09T01:46:56.378Z,4.34
2023-10-09T01:48:58.034Z,4.27
2023-10-09T01:50:59.533Z,4.25
2023-10-09T01:53:01.146Z,4.31
2023-10-09T01:55:02.737Z,4.28
2023-10-09T01:57:09.153Z,4.41
2023-10-09T01:59:10.811Z,4.14
2023-10-09T02:01:12.415Z,4.17
2023-10-09T02:03:13.939Z,4.14
2023-10-09T02:05:15.606Z,3.93
2023-10-09T02:07:17.250Z,3.89
2023-10-09T02:09:18.733Z,4.14
2023-10-09T02:11:20.391Z,4.17
2023-10-09T02:13:21.898Z,4.16
2023-10-09T02:15:23.354Z,4.24
2023-10-09T02:17:24.971Z,4.16
2023-10-09T02:19:26.564Z,4.17
2023-10-09T02:21:28.053Z,4.14
2023-10-09T02:23:30.634Z,4.30
2023-10-09T02:25:32.262Z,4.07
2023-10-09T02:27:33.714Z,4.34
2023-10-09T02:29:35.186Z,4.33
2023-10-09T02:31:37.852Z,4.34
2023-10-09T02:33:39.945Z,4.34
2023-10-09T02:35:41.404Z,4.26
2023-10-09T02:37:43.399Z,4.38
2023-10-09T02:39:44.896Z,4.30
2023-10-09T02:41:46.442Z,4.22
2023-10-09T02:43:48.070Z,4.31
2023-10-09T02:45:49.522Z,4.35
2023-10-09T02:47:51.242Z,4.35
2023-10-09T02:49:53.253Z,4.29
2023-10-09T02:51:54.699Z,4.33
2023-10-09T02:54:05.401Z,4.27
2023-10-09T02:56:07.091Z,4.35
2023-10-09T02:58:08.530Z,4.46
2023-10-09T03:00:10.513Z,4.31
2023-10-09T03:02:12.835Z,4.42
2023-10-09T03:04:14.573Z,4.38
2023-10-09T03:06:16.720Z,4.37
2023-10-09T03:08:18.456Z,4.20
2023-10-09T03:10:20.002Z,4.36
2023-10-09T03:12:21.469Z,4.47
2023-10-09T03:14:23.731Z,4.24
2023-10-09T03:16:25.167Z,4.37
2023-10-09T03:18:26.629Z,4.35
2023-10-09T03:20:28.521Z,4.30
2023-10-09T03:22:29.983Z,4.28
2023-10-09T03:24:31.562Z,4.32
2023-10-09T03:26:33.607Z,4.32
2023-10-09T03:28:35.200Z,4.34
2023-10-09T03:30:45.545Z,4.40
2023-10-09T03:32:47.310Z,4.37
2023-10-09T03:34:48.773Z,4.42
2023-10-09T03:36:50.929Z,4.34
2023-10-09T03:38:53.625Z,4.40
2023-10-09T03:40:55.046Z,4.43
2023-10-09T03:42:56.524Z,4.37
2023-10-09T03:44:58.495Z,4.27
2023-10-09T03:47:00.084Z,4.09
2023-10-09T03:49:01.548Z,4.25
2023-10-09T03:51:03.569Z,4.10
2023-10-09T03:53:06.455Z,4.34
2023-10-09T03:55:08.279Z,4.38
2023-10-09T03:57:10.218Z,4.42
2023-10-09T03:59:11.667Z,4.42
2023-10-09T04:01:15.226Z,4.44
2023-10-09T04:03:17.509Z,4.38
2023-10-09T04:05:19.299Z,4.39
2023-10-09T04:07:20.759Z,4.47
2023-10-09T04:09:22.435Z,4.38
2023-10-09T04:11:23.978Z,4.47
2023-10-09T04:13:25.497Z,4.31
2023-10-09T04:15:27.705Z,4.45
2023-10-09T04:17:29.149Z,4.50
2023-10-09T04:19:30.890Z,4.39
2023-10-09T04:21:32.392Z,4.46
2023-10-09T04:23:33.940Z,4.46
2023-10-09T04:25:35.385Z,4.57
2023-10-09T04:27:36.945Z,4.68
2023-10-09T04:29:38.472Z,4.74
2023-10-09T04:31:39.916Z,4.65
2023-10-09T04:33:41.377Z,4.69
2023-10-09T04:35:42.819Z,4.77
2023-10-09T04:37:44.240Z,4.72
2023-10-09T04:39:45.824Z,4.76
2023-10-09T04:41:47.241Z,4.72
2023-10-09T04:43:49.058Z,4.73
2023-10-09T04:45:50.576Z,4.75
2023-10-09T04:47:52.027Z,4.93
2023-10-09T04:49:53.534Z,5.02
2023-10-09T04:51:55.459Z,4.88
2023-10-09T04:53:56.896Z,4.95
2023-10-09T04:55:58.351Z,4.92
2023-10-09T04:58:01.961Z,4.88
2023-10-09T05:00:04.727Z,5.03
2023-10-09T05:02:06.184Z,5.05
2023-10-09T05:04:07.892Z,5.01
2023-10-09T05:06:13.349Z,4.89
2023-10-09T05:08:16.285Z,5.02
2023-10-09T05:10:17.842Z,4.92
2023-10-09T05:12:19.322Z,4.85
2023-10-09T05:14:21.910Z,4.84
2023-10-09T05:16:23.544Z,4.97
2023-10-09T05:18:25.041Z,5.12
2023-10-09T05:20:26.510Z,5.10
2023-10-09T05:22:27.958Z,5.04
2023-10-09T05:24:29.462Z,5.08
2023-10-09T05:26:30.933Z,5.25
2023-10-09T05:28:32.783Z,5.12
2023-10-09T05:30:34.428Z,5.28
2023-10-09T05:32:35.876Z,5.32
2023-10-09T05:34:37.563Z,5.24
2023-10-09T05:36:39.020Z,5.21
2023-10-09T05:38:40.468Z,5.30
2023-10-09T05:40:43.900Z,5.23
2023-10-09T05:42:48.321Z,5.20
2023-10-09T05:44:49.756Z,5.18
2023-10-09T05:46:51.174Z,5.21
2023-10-09T05:48:52.694Z,5.41
2023-10-09T05:50:54.184Z,5.36
2023-10-09T05:52:57.658Z,5.49
2023-10-09T05:54:59.791Z,5.55
2023-10-09T05:57:01.310Z,5.56
2023-10-09T05:59:02.899Z,5.47
2023-10-09T06:01:04.370Z,5.67
2023-10-09T06:03:05.937Z,5.52
2023-10-09T06:05:07.890Z,5.78
2023-10-09T06:07:09.370Z,5.94
2023-10-09T06:09:11.127Z,5.86
2023-10-09T06:11:13.746Z,5.88
2023-10-09T06:13:15.192Z,5.77
2023-10-09T06:15:17.132Z,5.90
2023-10-09T06:17:18.618Z,5.85
2023-10-09T06:19:20.159Z,5.97
2023-10-09T06:21:22.571Z,5.98
2023-10-09T06:23:24.112Z,5.96
2023-10-09T06:25:25.584Z,5.84
2023-10-09T06:27:27.060Z,5.97
2023-10-09T06:29:31.886Z,5.80
2023-10-09T06:31:34.759Z,5.93
2023-10-09T06:33:36.275Z,6.03
2023-10-09T06:35:37.823Z,6.23
2023-10-09T06:37:39.253Z,6.25
2023-10-09T06:39:40.770Z,6.26
2023-10-09T06:41:42.508Z,6.53
2023-10-09T06:43:43.986Z,6.61
2023-10-09T06:45:45.730Z,6.53
2023-10-09T06:47:49.445Z,6.48
2023-10-09T06:49:50.935Z,6.60
2023-10-09T06:51:52.365Z,6.71
2023-10-09T06:53:55.077Z,6.80
2023-10-09T06:55:56.549Z,6.81
2023-10-09T06:57:57.973Z,6.84
2023-10-09T06:59:59.550Z,6.84
2023-10-09T07:02:01.091Z,6.94
2023-10-09T07:04:02.663Z,6.83
2023-10-09T07:06:11.108Z,7.03
2023-10-09T07:08:12.836Z,7.08
2023-10-09T07:10:14.398Z,6.98
2023-10-09T07:12:15.990Z,7.07
2023-10-09T07:14:21.593Z,7.36
2023-10-09T07:16:23.953Z,7.38
2023-10-09T07:18:25.539Z,7.48
2023-10-09T07:20:26.999Z,6.91
2023-10-09T07:22:28.423Z,7.53
2023-10-09T07:24:33.737Z,7.66
2023-10-09T07:26:35.222Z,7.71
2023-10-09T07:28:36.664Z,7.53
2023-10-09T07:30:38.137Z,7.72
2023-10-09T07:32:39.686Z,7.90
2023-10-09T07:34:41.229Z,7.78
2023-10-09T07:36:42.730Z,7.99
2023-10-09T07:38:44.242Z,7.88
2023-10-09T07:40:47.298Z,8.22
2023-10-09T07:42:48.947Z,8.11
2023-10-09T07:44:50.408Z,7.85
2023-10-09T07:46:51.951Z,7.85
2023-10-09T07:48:53.965Z,7.98
2023-10-09T07:50:55.440Z,8.04
2023-10-09T07:52:58.648Z,8.17
2023-10-09T07:55:00.147Z,8.18
2023-10-09T07:57:01.603Z,8.26
2023-10-09T07:59:03.262Z,8.30
2023-10-09T08:01:05.201Z,8.20
2023-10-09T08:03:06.740Z,8.29
2023-10-09T08:05:08.741Z,8.37
2023-10-09T08:08:06.088Z,8.50
2023-10-09T08:09:33.985Z,8.68
2023-10-09T08:11:35.625Z,8.93
2023-10-09T08:13:37.215Z,9.21
2023-10-09T08:15:38.799Z,8.87
2023-10-09T08:17:40.412Z,8.86
2023-10-09T08:19:43.062Z,8.93
2023-10-09T08:21:44.493Z,9.08
2023-10-09T08:23:46.126Z,8.86
2023-10-09T08:25:47.629Z,8.92
2023-10-09T08:27:49.109Z,8.97
2023-10-09T08:29:50.659Z,8.85
2023-10-09T08:31:52.081Z,9.11
2023-10-09T08:35:58.429Z,9.13
2023-10-09T08:38:03.929Z,9.17
2023-10-09T08:40:06.118Z,9.23
2023-10-09T08:42:08.130Z,9.32
2023-10-09T08:44:13.171Z,9.20
2023-10-09T08:46:15.797Z,9.27
2023-10-09T08:48:17.513Z,9.45
2023-10-09T08:50:19.437Z,9.37
2023-10-09T08:52:20.999Z,9.19
2023-10-09T08:54:22.596Z,9.23
2023-10-09T08:56:24.842Z,9.22
2023-10-09T08:58:27.252Z,9.33
2023-10-09T09:00:29.079Z,9.58
2023-10-09T09:02:30.979Z,9.51
2023-10-09T09:04:40.208Z,9.50
2023-10-09T09:06:42.111Z,9.72
2023-10-09T09:08:44.451Z,9.78
2023-10-09T09:10:45.938Z,9.77
2023-10-09T09:12:48.671Z,9.77
2023-10-09T09:14:50.511Z,10.03
2023-10-09T09:16:52.023Z,10.10
2023-10-09T09:18:57.654Z,10.19
2023-10-09T09:20:59.831Z,9.97
2023-10-09T09:23:03.153Z,10.17
2023-10-09T09:25:06.756Z,10.03
2023-10-09T09:27:08.414Z,9.84
2023-10-09T09:29:10.008Z,9.87
2023-10-09T09:31:11.774Z,9.97
2023-10-09T09:33:20.745Z,10.15
2023-10-09T09:35:22.195Z,10.28
2023-10-09T09:37:27.640Z,10.27
2023-10-09T09:39:38.650Z,10.01
2023-10-09T09:41:48.212Z,10.24
2023-10-09T09:43:58.661Z,10.24
2023-10-09T09:46:02.513Z,10.15
2023-10-09T09:48:05.188Z,10.33
2023-10-09T09:50:07.563Z,10.42
2023-10-09T09:52:10.341Z,10.80
2023-10-09T09:54:11.865Z,10.46
2023-10-09T09:56:16.942Z,10.39
2023-10-09T09:58:19.585Z,10.55
2023-10-09T10:00:30.670Z,10.45
2023-10-09T10:02:37.654Z,10.57
2023-10-09T10:04:41.706Z,10.41
2023-10-09T10:06:45.498Z,10.68
2023-10-09T10:08:49.005Z,10.52
2023-10-09T10:10:51.219Z,10.65
2023-10-09T10:12:56.261Z,10.71
2023-10-09T10:15:00.399Z,10.57
2023-10-09T10:17:07.384Z,10.52
2023-10-09T10:19:09.073Z,10.53
2023-10-09T10:21:15.456Z,10.51
2023-10-09T10:23:18.327Z,10.72
2023-10-09T10:25:31.959Z,10.98
2023-10-09T10:27:33.444Z,11.09
2023-10-09T10:29:35.048Z,11.11
2023-10-09T10:31:59.572Z,10.72
2023-10-09T10:34:00.928Z,10.90
2023-10-09T10:36:02.678Z,11.11
2023-10-09T10:38:04.178Z,11.17
2023-10-09T10:40:06.832Z,11.25
2023-10-09T10:42:08.572Z,11.14
2023-10-09T10:44:10.038Z,10.77
2023-10-09T10:46:11.801Z,10.66
2023-10-09T10:48:13.529Z,10.91
2023-10-09T10:50:15.124Z,10.81
2023-10-09T10:52:27.533Z,10.60
2023-10-09T10:54:29.354Z,10.46
2023-10-09T10:56:38.965Z,10.74
2023-10-09T10:58:41.283Z,10.52
2023-10-09T11:00:43.479Z,10.58
2023-10-09T11:02:45.391Z,10.72
2023-10-09T11:04:47.474Z,10.62
2023-10-09T11:06:52.614Z,10.56
2023-10-09T11:08:54.052Z,10.68
2023-10-09T11:11:11.458Z,10.82
2023-10-09T11:13:21.902Z,10.99
2023-10-09T11:15:34.284Z,10.86
2023-10-09T11:17:38.988Z,11.13
2023-10-09T11:19:41.276Z,10.83
2023-10-09T11:21:43.051Z,11.13
2023-10-09T11:23:45.195Z,11.04
2023-10-09T11:25:48.109Z,10.87
2023-10-09T11:27:49.940Z,10.73
2023-10-09T11:29:52.450Z,11.20
2023-10-09T11:32:07.236Z,10.97
2023-10-09T11:34:21.312Z,10.95
2023-10-09T11:36:23.100Z,11.00
2023-10-09T11:38:25.375Z,11.03
2023-10-09T11:40:34.650Z,11.06
2023-10-09T11:42:36.317Z,11.10
2023-10-09T11:44:40.627Z,11.16
2023-10-09T11:46:58.507Z,11.43
2023-10-09T11:49:10.391Z,11.54
2023-10-09T11:51:14.434Z,11.78
2023-10-09T11:53:16.269Z,11.88
2023-10-09T11:55:17.720Z,11.85
2023-10-09T11:57:19.267Z,11.70
2023-10-09T11:59:20.899Z,11.90
2023-10-09T12:01:22.338Z,11.91
2023-10-09T12:03:25.781Z,12.03
2023-10-09T12:05:27.368Z,12.33
2023-10-09T12:07:29.433Z,12.19
2023-10-09T12:09:31.118Z,11.64
2023-10-09T12:11:32.678Z,11.76
2023-10-09T12:13:34.284Z,11.68
2023-10-09T12:15:35.929Z,11.68
2023-10-09T12:17:37.462Z,12.00
2023-10-09T12:19:39.935Z,12.16
2023-10-09T12:21:41.479Z,12.33
2023-10-09T12:23:44.912Z,12.04
2023-10-09T12:25:46.917Z,11.89
2023-10-09T12:27:48.437Z,11.85
2023-10-09T12:29:50.622Z,12.20
2023-10-09T12:31:52.629Z,12.34
2023-10-09T12:33:54.696Z,12.66
2023-10-09T12:35:56.731Z,12.73
2023-10-09T12:37:58.417Z,12.71
2023-10-09T12:39:59.969Z,12.46
2023-10-09T12:42:01.736Z,12.72
2023-10-09T12:44:03.635Z,13.03
2023-10-09T12:46:09.058Z,13.07
2023-10-09T12:48:10.661Z,12.92
2023-10-09T12:50:12.381Z,13.12
2023-10-09T12:52:14.033Z,13.07
2023-10-09T12:54:18.140Z,12.91
2023-10-09T12:56:19.834Z,12.52
2023-10-09T12:58:21.451Z,12.81
2023-10-09T13:00:22.886Z,13.00
2023-10-09T13:02:24.822Z,13.04
2023-10-09T13:04:26.437Z,12.81
2023-10-09T13:06:28.645Z,12.80
2023-10-09T13:08:30.242Z,12.43
2023-10-09T13:10:31.811Z,12.72
2023-10-09T13:12:33.266Z,13.01
2023-10-09T13:14:34.943Z,13.29
2023-10-09T13:16:36.622Z,12.88
2023-10-09T13:18:38.661Z,12.98
2023-10-09T13:20:40.191Z,12.82
2023-10-09T13:22:42.606Z,12.78
2023-10-09T13:24:44.122Z,12.30
2023-10-09T13:26:46.550Z,12.13
2023-10-09T13:28:50.287Z,11.97
2023-10-09T13:30:51.736Z,11.63
2023-10-09T13:32:53.521Z,11.81
2023-10-09T13:34:55.185Z,12.01
2023-10-09T13:36:56.693Z,12.07
2023-10-09T13:39:03.186Z,12.05
2023-10-09T13:41:04.845Z,11.93
2023-10-09T13:43:06.298Z,11.65
2023-10-09T13:45:08.305Z,11.93
2023-10-09T13:47:10.071Z,12.04
2023-10-09T13:49:12.601Z,12.39
2023-10-09T13:51:14.393Z,12.33
2023-10-09T13:53:16.137Z,11.79
2023-10-09T13:55:17.576Z,12.00
2023-10-09T13:57:19.061Z,11.82
2023-10-09T13:59:24.100Z,11.88
2023-10-09T14:01:25.604Z,11.98
2023-10-09T14:03:27.267Z,11.98
2023-10-09T14:05:29.483Z,11.93
2023-10-09T14:07:30.956Z,12.11
2023-10-09T14:09:32.825Z,11.98
2023-10-09T14:11:35.013Z,11.81
2023-10-09T14:13:36.498Z,11.81
2023-10-09T14:15:37.935Z,11.87
2023-10-09T14:17:39.610Z,12.04
2023-10-09T14:19:44.822Z,11.97
2023-10-09T14:21:46.284Z,11.58
2023-10-09T14:23:47.868Z,11.58
2023-10-09T14:25:49.345Z,11.81
2023-10-09T14:27:50.811Z,11.89
2023-10-09T14:29:53.333Z,12.07
2023-10-09T14:31:54.829Z,12.17
2023-10-09T14:33:59.537Z,12.14
2023-10-09T14:36:01.065Z,12.30
2023-10-09T14:38:02.578Z,12.19
2023-10-09T14:40:04.421Z,12.35
2023-10-09T14:42:06.822Z,12.50
2023-10-09T14:44:08.312Z,12.63
2023-10-09T14:46:14.175Z,12.76
2023-10-09T14:48:18.983Z,12.66
2023-10-09T14:50:22.312Z,12.73
2023-10-09T14:52:23.807Z,12.63
2023-10-09T14:54:27.199Z,12.64
2023-10-09T14:56:29.978Z,12.88
2023-10-09T14:58:31.452Z,12.62
2023-10-09T15:00:32.979Z,12.54
2023-10-09T15:02:34.815Z,12.73
2023-10-09T15:04:36.908Z,12.67
2023-10-09T15:06:38.977Z,12.52
2023-10-09T15:08:40.413Z,12.75
2023-10-09T15:10:52.084Z,12.78
2023-10-09T15:12:53.842Z,12.74
2023-10-09T15:14:55.282Z,12.87
2023-10-09T15:16:58.492Z,12.64
2023-10-09T15:19:00.502Z,12.60
2023-10-09T15:21:01.949Z,12.44
2023-10-09T15:23:03.633Z,12.42
2023-10-09T15:25:05.457Z,12.44
2023-10-09T15:27:07.062Z,12.44
2023-10-09T15:29:08.674Z,12.51
2023-10-09T15:31:10.315Z,12.44
2023-10-09T15:33:11.940Z,12.27
2023-10-09T15:35:13.514Z,11.94
2023-10-09T15:37:15.344Z,12.15
2023-10-09T15:39:17.516Z,12.36
2023-10-09T15:41:19.063Z,12.33
2023-10-09T15:43:20.941Z,12.02
2023-10-09T15:45:23.448Z,12.09
2023-10-09T15:47:25.004Z,12.02
2023-10-09T15:49:30.388Z,11.85
2023-10-09T15:51:31.842Z,11.84
2023-10-09T15:53:33.325Z,11.61
2023-10-09T15:55:35.904Z,11.65
2023-10-09T15:57:37.412Z,11.45
2023-10-09T15:59:38.987Z,11.49
2023-10-09T16:01:40.700Z,11.37
2023-10-09T16:03:43.455Z,11.11
2023-10-09T16:05:45.139Z,11.13
2023-10-09T16:07:46.896Z,11.01
2023-10-09T16:09:48.382Z,11.04
2023-10-09T16:11:49.940Z,10.87
2023-10-09T16:13:52.264Z,10.95
2023-10-09T16:15:53.744Z,10.81
2023-10-09T16:17:55.305Z,10.88
2023-10-09T16:19:56.961Z,10.99
2023-10-09T16:21:58.434Z,10.96
2023-10-09T16:23:59.871Z,10.54
2023-10-09T16:26:01.575Z,10.71
2023-10-09T16:28:04.076Z,10.73
2023-10-09T16:30:06.252Z,10.64
2023-10-09T16:32:08.625Z,10.44
2023-10-09T16:34:11.398Z,10.50
2023-10-09T16:36:12.838Z,10.27
2023-10-09T16:38:14.705Z,10.39
2023-10-09T16:40:16.990Z,10.30
2023-10-09T16:42:18.414Z,10.16
2023-10-09T16:44:20.196Z,10.07
2023-10-09T16:46:21.642Z,10.10
2023-10-09T16:48:23.098Z,10.01
2023-10-09T16:50:24.785Z,9.88
2023-10-09T16:52:26.269Z,9.98
2023-10-09T16:54:27.727Z,9.95
2023-10-09T16:56:29.465Z,9.89
2023-10-09T16:58:30.885Z,9.79
2023-10-09T17:00:32.354Z,9.91
2023-10-09T17:02:36.128Z,9.63
2023-10-09T17:04:40.191Z,9.36
2023-10-09T17:06:41.656Z,9.66
2023-10-09T17:08:43.546Z,9.55
2023-10-09T17:10:45.492Z,9.54
2023-10-09T17:12:46.945Z,9.59
2023-10-09T17:14:48.730Z,9.53
2023-10-09T17:16:50.421Z,9.17
2023-10-09T17:18:56.549Z,9.43
2023-10-09T17:20:59.343Z,9.27
2023-10-09T17:23:01.880Z,9.24
2023-10-09T17:25:03.542Z,9.26
2023-10-09T17:27:05.191Z,9.19
2023-10-09T17:29:06.813Z,9.07
2023-10-09T17:31:08.380Z,9.04
2023-10-09T17:33:10.149Z,9.00
2023-10-09T17:35:12.473Z,8.77
2023-10-09T17:37:13.954Z,8.70
2023-10-09T17:39:15.518Z,8.66
2023-10-09T17:41:18.140Z,8.70
2023-10-09T17:43:23.145Z,8.57
2023-10-09T17:45:25.630Z,8.60
2023-10-09T17:47:27.514Z,8.40
2023-10-09T17:49:29.089Z,8.12
2023-10-09T17:51:30.637Z,8.31
2023-10-09T17:53:32.157Z,8.03
2023-10-09T17:55:35.687Z,8.18
2023-10-09T17:57:39.072Z,8.22
2023-10-09T17:59:40.625Z,8.00
2023-10-09T18:01:42.066Z,8.06
2023-10-09T18:03:43.730Z,8.10
2023-10-09T18:05:45.332Z,7.99
2023-10-09T18:07:47.047Z,8.15
2023-10-09T18:09:48.864Z,7.87
2023-10-09T18:11:50.426Z,7.83
2023-10-09T18:13:51.919Z,7.92
2023-10-09T18:16:04.510Z,7.95
2023-10-09T18:18:06.463Z,7.78
2023-10-09T18:20:08.922Z,7.85
2023-10-09T18:22:10.602Z,7.94
2023-10-09T18:24:12.573Z,7.56
2023-10-09T18:26:14.027Z,7.74
2023-10-09T18:28:15.660Z,7.77
2023-10-09T18:30:17.479Z,7.97
2023-10-09T18:32:18.985Z,7.75
2023-10-09T18:34:22.569Z,7.88
2023-10-09T18:36:24.569Z,7.88
2023-10-09T18:38:25.978Z,7.94
2023-10-09T18:40:27.899Z,7.87
2023-10-09T18:42:29.698Z,7.73
2023-10-09T18:44:31.160Z,7.92
2023-10-09T18:46:32.777Z,7.94
2023-10-09T18:48:34.594Z,8.02
2023-10-09T18:50:39.913Z,8.12
2023-10-09T18:52:41.640Z,8.18
2023-10-09T18:54:43.527Z,8.21
2023-10-09T18:56:45.109Z,8.20
2023-10-09T18:58:46.864Z,8.18
2023-10-09T19:00:50.852Z,8.22
2023-10-09T19:02:53.255Z,8.11
2023-10-09T19:04:54.959Z,8.16
2023-10-09T19:06:56.686Z,8.20
2023-10-09T19:08:58.107Z,8.18
2023-10-09T19:11:01.006Z,8.19
2023-10-09T19:13:02.613Z,8.15
2023-10-09T19:15:04.738Z,8.20
2023-10-09T19:17:06.527Z,8.20
2023-10-09T19:19:08.098Z,8.31
2023-10-09T19:21:11.412Z,8.28
2023-10-09T19:23:13.998Z,8.29
2023-10-09T19:25:15.451Z,8.32
2023-10-09T19:27:16.886Z,8.42
2023-10-09T19:29:18.744Z,8.32
2023-10-09T19:31:20.431Z,8.40
2023-10-09T19:33:21.931Z,8.33
2023-10-09T19:35:24.531Z,8.43
2023-10-09T19:37:26.223Z,8.49
2023-10-09T19:39:27.648Z,8.61
2023-10-09T19:41:29.881Z,8.42
2023-10-09T19:43:31.325Z,8.42
2023-10-09T19:45:32.791Z,8.67
2023-10-09T19:47:34.835Z,8.46
2023-10-09T19:49:36.719Z,8.67
2023-10-09T19:51:38.152Z,8.76
2023-10-09T19:53:40.227Z,8.81
2023-10-09T19:55:43.918Z,8.80
2023-10-09T19:57:45.268Z,8.91
2023-10-09T19:59:47.156Z,8.59
2023-10-09T20:01:48.632Z,8.78
2023-10-09T20:03:50.230Z,8.64
2023-10-09T20:05:52.204Z,8.88
2023-10-09T20:07:53.650Z,8.90
2023-10-09T20:09:55.151Z,8.83
2023-10-09T20:11:57.175Z,8.74
2023-10-09T20:13:58.659Z,8.80
2023-10-09T20:16:00.848Z,8.93
2023-10-09T20:18:02.715Z,8.82
2023-10-09T20:20:04.519Z,8.91
2023-10-09T20:22:05.960Z,8.88
2023-10-09T20:24:07.729Z,8.94
2023-10-09T20:26:09.869Z,8.86
2023-10-09T20:28:11.377Z,8.90
2023-10-09T20:30:13.178Z,8.68
2023-10-09T20:32:14.736Z,8.95
2023-10-09T20:34:16.378Z,8.77
2023-10-09T20:36:18.105Z,8.76
2023-10-09T20:38:19.618Z,8.62
2023-10-09T20:40:22.016Z,8.82
2023-10-09T20:42:23.614Z,8.69
2023-10-09T20:44:25.075Z,8.88
2023-10-09T20:46:26.881Z,8.63
2023-10-09T20:48:28.328Z,8.64
2023-10-09T20:50:29.862Z,8.77
2023-10-09T20:52:31.419Z,8.57
2023-10-09T20:54:33.041Z,8.71
2023-10-09T20:56:34.513Z,8.60
2023-10-09T20:58:36.213Z,8.40
2023-10-09T21:00:37.787Z,8.40
2023-10-09T21:02:42.878Z,8.38
2023-10-09T21:04:44.634Z,8.15
2023-10-09T21:06:46.146Z,8.03
2023-10-09T21:08:48.629Z,8.15
2023-10-09T21:10:50.183Z,7.92
2023-10-09T21:12:52.153Z,8.07
2023-10-09T21:14:53.632Z,8.08
2023-10-09T21:16:55.308Z,8.20
2023-10-09T21:18:57.157Z,8.13
2023-10-09T21:21:00.085Z,7.99
2023-10-09T21:23:02.075Z,7.91
2023-10-09T21:25:05.515Z,7.91
2023-10-09T21:27:06.961Z,7.88
2023-10-09T21:29:08.707Z,8.09
2023-10-09T21:31:10.362Z,8.29
2023-10-09T21:33:11.885Z,8.17
2023-10-09T21:35:17.823Z,8.43
2023-10-09T21:37:19.939Z,8.46
2023-10-09T21:39:21.408Z,8.25
2023-10-09T21:41:23.412Z,8.54
2023-10-09T21:43:25.048Z,8.60
2023-10-09T21:45:27.826Z,8.59
2023-10-09T21:47:29.605Z,8.63
2023-10-09T21:49:31.199Z,8.70
2023-10-09T21:51:32.676Z,8.60
2023-10-09T21:53:34.586Z,8.52
2023-10-09T21:55:36.757Z,8.63
2023-10-09T21:57:38.507Z,8.73
2023-10-09T21:59:40.099Z,8.80
2023-10-09T22:01:41.769Z,8.52
2023-10-09T22:03:43.419Z,8.56
2023-10-09T22:05:45.151Z,8.71
2023-10-09T22:07:46.865Z,8.68
2023-10-09T22:09:48.834Z,8.61
2023-10-09T22:11:50.358Z,8.60
2023-10-09T22:13:52.019Z,8.64
2023-10-09T22:15:53.530Z,8.62
2023-10-09T22:17:55.148Z,8.50
2023-10-09T22:19:56.966Z,8.51
2023-10-09T22:21:58.500Z,8.48
2023-10-09T22:24:00.172Z,8.25
2023-10-09T22:26:02.199Z,8.30
2023-10-09T22:28:04.179Z,8.36
2023-10-09T22:30:06.417Z,8.29
2023-10-09T22:32:08.505Z,8.23
2023-10-09T22:34:09.980Z,8.28
2023-10-09T22:36:14.520Z,8.21
2023-10-09T22:38:16.166Z,8.29
2023-10-09T22:40:17.676Z,8.20
2023-10-09T22:42:19.276Z,8.08
2023-10-09T22:44:20.824Z,8.01
2023-10-09T22:46:22.321Z,8.27
2023-10-09T22:48:24.026Z,8.12
2023-10-09T22:50:26.602Z,8.00
2023-10-09T22:52:28.128Z,7.98
2023-10-09T22:54:29.606Z,7.89
2023-10-09T22:56:31.271Z,7.82
2023-10-09T22:58:34.145Z,7.98
2023-10-09T23:00:35.585Z,7.78
2023-10-09T23:02:37.589Z,7.61
2023-10-09T23:04:39.266Z,7.59
2023-10-09T23:06:40.784Z,7.50
2023-10-09T23:08:42.391Z,7.22
2023-10-09T23:10:45.329Z,7.37
2023-10-09T23:12:46.758Z,7.36
2023-10-09T23:14:49.670Z,7.26
2023-10-09T23:16:51.992Z,7.23
2023-10-09T23:18:53.533Z,7.17
2023-10-09T23:20:55.298Z,7.07
2023-10-09T23:22:56.747Z,6.94
2023-10-09T23:24:58.255Z,6.82
2023-10-09T23:27:00.070Z,6.76
2023-10-09T23:29:01.513Z,6.88
2023-10-09T23:31:03.074Z,6.65
2023-10-09T23:33:04.867Z,6.57
2023-10-09T23:35:06.487Z,6.54
2023-10-09T23:37:08.235Z,6.19
2023-10-09T23:39:09.740Z,6.41
2023-10-09T23:41:11.686Z,6.49
2023-10-09T23:43:15.303Z,6.48
2023-10-09T23:45:16.988Z,6.29
2023-10-09T23:47:18.511Z,6.38
2023-10-09T23:49:20.117Z,6.23
2023-10-09T23:51:21.682Z,5.98
2023-10-09T23:53:23.244Z,6.10
2023-10-09T23:55:24.884Z,6.02
2023-10-09T23:57:26.329Z,6.05
2023-10-09T23:59:27.825Z,6.12
